sensor_id;sensor_type;location;lat;lon;timestamp;P1;durP1;ratioP1;P2;durP2;ratioP2
78027;SDS011;74605;45.864;11.474;2024-03-07T00:00:22;3.33;;;0.75;;
78027;SDS011;74605;45.864;11.474;2024-03-07T00:02:49;2.90;;;0.73;;
78027;SDS011;74605;45.864;11.474;2024-03-07T00:05:17;3.13;;;0.80;;
78027;SDS011;74605;45.864;11.474;2024-03-07T00:07:44;3.03;;;0.60;;
78027;SDS011;74605;45.864;11.474;2024-03-07T00:10:10;3.60;;;0.88;;
78027;SDS011;74605;45.864;11.474;2024-03-07T00:12:38;3.20;;;0.80;;
78027;SDS011;74605;45.864;11.474;2024-03-07T00:15:09;3.00;;;0.90;;
78027;SDS011;74605;45.864;11.474;2024-03-07T00:17:37;3.40;;;0.87;;
78027;SDS011;74605;45.864;11.474;2024-03-07T00:20:03;3.22;;;0.77;;
78027;SDS011;74605;45.864;11.474;2024-03-07T00:22:34;4.60;;;1.00;;
78027;SDS011;74605;45.864;11.474;2024-03-07T00:25:00;2.97;;;0.65;;
78027;SDS011;74605;45.864;11.474;2024-03-07T00:27:27;3.38;;;0.80;;
78027;SDS011;74605;45.864;11.474;2024-03-07T00:29:53;3.40;;;0.90;;
78027;SDS011;74605;45.864;11.474;2024-03-07T00:32:20;3.17;;;0.80;;
78027;SDS011;74605;45.864;11.474;2024-03-07T00:34:46;3.70;;;0.90;;
78027;SDS011;74605;45.864;11.474;2024-03-07T00:37:13;3.10;;;0.70;;
78027;SDS011;74605;45.864;11.474;2024-03-07T00:39:39;4.28;;;0.80;;
78027;SDS011;74605;45.864;11.474;2024-03-07T00:42:05;2.93;;;0.70;;
78027;SDS011;74605;45.864;11.474;2024-03-07T00:44:32;3.67;;;0.90;;
78027;SDS011;74605;45.864;11.474;2024-03-07T00:46:58;3.38;;;0.80;;
78027;SDS011;74605;45.864;11.474;2024-03-07T00:49:24;4.80;;;1.30;;
78027;SDS011;74605;45.864;11.474;2024-03-07T00:51:51;5.33;;;1.70;;
78027;SDS011;74605;45.864;11.474;2024-03-07T00:54:16;5.28;;;1.35;;
78027;SDS011;74605;45.864;11.474;2024-03-07T00:56:42;6.10;;;1.70;;
78027;SDS011;74605;45.864;11.474;2024-03-07T00:59:08;5.57;;;1.73;;
78027;SDS011;74605;45.864;11.474;2024-03-07T01:01:34;4.83;;;1.27;;
78027;SDS011;74605;45.864;11.474;2024-03-07T01:04:03;5.07;;;1.75;;
78027;SDS011;74605;45.864;11.474;2024-03-07T01:06:29;5.10;;;1.98;;
78027;SDS011;74605;45.864;11.474;2024-03-07T01:08:55;9.20;;;6.50;;
78027;SDS011;74605;45.864;11.474;2024-03-07T01:11:21;6.57;;;4.00;;
78027;SDS011;74605;45.864;11.474;2024-03-07T01:13:47;9.35;;;3.45;;
78027;SDS011;74605;45.864;11.474;2024-03-07T01:16:13;7.90;;;2.88;;
78027;SDS011;74605;45.864;11.474;2024-03-07T01:18:39;7.43;;;2.57;;
78027;SDS011;74605;45.864;11.474;2024-03-07T01:21:05;6.90;;;2.58;;
78027;SDS011;74605;45.864;11.474;2024-03-07T01:23:31;8.45;;;2.55;;
78027;SDS011;74605;45.864;11.474;2024-03-07T01:25:58;10.87;;;3.33;;
78027;SDS011;74605;45.864;11.474;2024-03-07T01:28:24;10.15;;;3.10;;
78027;SDS011;74605;45.864;11.474;2024-03-07T01:30:52;8.38;;;3.15;;
78027;SDS011;74605;45.864;11.474;2024-03-07T01:33:18;8.30;;;2.63;;
78027;SDS011;74605;45.864;11.474;2024-03-07T01:35:45;5.82;;;2.17;;
78027;SDS011;74605;45.864;11.474;2024-03-07T01:38:11;6.00;;;2.10;;
78027;SDS011;74605;45.864;11.474;2024-03-07T01:40:41;6.25;;;2.13;;
78027;SDS011;74605;45.864;11.474;2024-03-07T01:43:08;4.97;;;1.65;;
78027;SDS011;74605;45.864;11.474;2024-03-07T01:45:34;4.72;;;1.52;;
78027;SDS011;74605;45.864;11.474;2024-03-07T01:48:02;4.13;;;1.17;;
78027;SDS011;74605;45.864;11.474;2024-03-07T01:50:30;3.93;;;1.13;;
78027;SDS011;74605;45.864;11.474;2024-03-07T01:52:56;4.25;;;1.25;;
78027;SDS011;74605;45.864;11.474;2024-03-07T01:55:22;4.10;;;1.33;;
78027;SDS011;74605;45.864;11.474;2024-03-07T01:57:48;5.55;;;1.35;;
78027;SDS011;74605;45.864;11.474;2024-03-07T02:00:15;4.15;;;1.25;;
78027;SDS011;74605;45.864;11.474;2024-03-07T02:02:43;3.93;;;1.40;;
78027;SDS011;74605;45.864;11.474;2024-03-07T02:05:10;4.60;;;1.30;;
78027;SDS011;74605;45.864;11.474;2024-03-07T02:07:36;5.13;;;1.58;;
78027;SDS011;74605;45.864;11.474;2024-03-07T02:10:04;4.32;;;1.30;;
78027;SDS011;74605;45.864;11.474;2024-03-07T02:12:30;4.00;;;1.20;;
78027;SDS011;74605;45.864;11.474;2024-03-07T02:14:57;3.70;;;1.20;;
78027;SDS011;74605;45.864;11.474;2024-03-07T02:17:24;5.75;;;1.20;;
78027;SDS011;74605;45.864;11.474;2024-03-07T02:19:53;3.63;;;1.10;;
78027;SDS011;74605;45.864;11.474;2024-03-07T02:22:19;4.22;;;1.10;;
78027;SDS011;74605;45.864;11.474;2024-03-07T02:24:45;3.90;;;1.20;;
78027;SDS011;74605;45.864;11.474;2024-03-07T02:27:12;4.25;;;1.35;;
78027;SDS011;74605;45.864;11.474;2024-03-07T02:29:40;4.32;;;1.08;;
78027;SDS011;74605;45.864;11.474;2024-03-07T02:32:06;4.32;;;1.60;;
78027;SDS011;74605;45.864;11.474;2024-03-07T02:34:33;4.53;;;1.30;;
78027;SDS011;74605;45.864;11.474;2024-03-07T02:36:59;4.13;;;1.40;;
78027;SDS011;74605;45.864;11.474;2024-03-07T02:39:25;4.20;;;1.30;;
78027;SDS011;74605;45.864;11.474;2024-03-07T02:41:51;6.47;;;1.70;;
78027;SDS011;74605;45.864;11.474;2024-03-07T02:44:17;5.30;;;1.75;;
78027;SDS011;74605;45.864;11.474;2024-03-07T02:46:43;3.95;;;1.63;;
78027;SDS011;74605;45.864;11.474;2024-03-07T02:49:09;4.78;;;1.70;;
78027;SDS011;74605;45.864;11.474;2024-03-07T02:51:35;4.78;;;1.70;;
78027;SDS011;74605;45.864;11.474;2024-03-07T02:54:01;5.05;;;2.15;;
78027;SDS011;74605;45.864;11.474;2024-03-07T02:56:31;4.50;;;1.73;;
78027;SDS011;74605;45.864;11.474;2024-03-07T02:58:57;4.28;;;1.80;;
78027;SDS011;74605;45.864;11.474;2024-03-07T03:01:22;4.30;;;1.73;;
78027;SDS011;74605;45.864;11.474;2024-03-07T03:03:48;4.65;;;1.63;;
78027;SDS011;74605;45.864;11.474;2024-03-07T03:06:14;5.53;;;2.13;;
78027;SDS011;74605;45.864;11.474;2024-03-07T03:08:40;5.00;;;1.90;;
78027;SDS011;74605;45.864;11.474;2024-03-07T03:11:06;5.07;;;1.80;;
78027;SDS011;74605;45.864;11.474;2024-03-07T03:13:34;4.50;;;1.77;;
78027;SDS011;74605;45.864;11.474;2024-03-07T03:16:03;6.57;;;2.10;;
78027;SDS011;74605;45.864;11.474;2024-03-07T03:18:32;4.55;;;1.95;;
78027;SDS011;74605;45.864;11.474;2024-03-07T03:21:02;5.07;;;1.75;;
78027;SDS011;74605;45.864;11.474;2024-03-07T03:23:28;4.35;;;1.58;;
78027;SDS011;74605;45.864;11.474;2024-03-07T03:25:54;4.85;;;1.45;;
78027;SDS011;74605;45.864;11.474;2024-03-07T03:28:20;3.87;;;1.30;;
78027;SDS011;74605;45.864;11.474;2024-03-07T03:30:47;3.53;;;1.17;;
78027;SDS011;74605;45.864;11.474;2024-03-07T03:33:14;3.90;;;1.10;;
78027;SDS011;74605;45.864;11.474;2024-03-07T03:35:41;6.13;;;1.52;;
78027;SDS011;74605;45.864;11.474;2024-03-07T03:38:07;4.10;;;1.38;;
78027;SDS011;74605;45.864;11.474;2024-03-07T03:40:34;4.30;;;1.30;;
78027;SDS011;74605;45.864;11.474;2024-03-07T03:43:00;3.80;;;1.10;;
78027;SDS011;74605;45.864;11.474;2024-03-07T03:45:27;3.58;;;1.08;;
78027;SDS011;74605;45.864;11.474;2024-03-07T03:47:53;4.53;;;1.00;;
78027;SDS011;74605;45.864;11.474;2024-03-07T03:50:19;3.63;;;0.98;;
78027;SDS011;74605;45.864;11.474;2024-03-07T03:52:48;3.03;;;0.90;;
78027;SDS011;74605;45.864;11.474;2024-03-07T03:55:15;4.47;;;1.08;;
78027;SDS011;74605;45.864;11.474;2024-03-07T03:57:42;3.83;;;1.25;;
78027;SDS011;74605;45.864;11.474;2024-03-07T04:00:09;3.95;;;1.08;;
78027;SDS011;74605;45.864;11.474;2024-03-07T04:02:42;3.85;;;1.20;;
78027;SDS011;74605;45.864;11.474;2024-03-07T04:05:15;3.70;;;1.07;;
78027;SDS011;74605;45.864;11.474;2024-03-07T04:07:42;3.67;;;1.30;;
78027;SDS011;74605;45.864;11.474;2024-03-07T04:10:08;4.18;;;1.13;;
78027;SDS011;74605;45.864;11.474;2024-03-07T04:12:36;4.10;;;1.30;;
78027;SDS011;74605;45.864;11.474;2024-03-07T04:15:07;4.93;;;1.25;;
78027;SDS011;74605;45.864;11.474;2024-03-07T04:17:34;4.10;;;1.20;;
78027;SDS011;74605;45.864;11.474;2024-03-07T04:20:03;3.92;;;1.25;;
78027;SDS011;74605;45.864;11.474;2024-03-07T04:22:33;5.28;;;1.35;;
78027;SDS011;74605;45.864;11.474;2024-03-07T04:25:00;4.47;;;1.00;;
78027;SDS011;74605;45.864;11.474;2024-03-07T04:27:35;3.60;;;0.98;;
78027;SDS011;74605;45.864;11.474;2024-03-07T04:30:04;4.40;;;1.23;;
78027;SDS011;74605;45.864;11.474;2024-03-07T04:32:31;4.05;;;1.10;;
78027;SDS011;74605;45.864;11.474;2024-03-07T04:34:59;4.70;;;1.15;;
78027;SDS011;74605;45.864;11.474;2024-03-07T04:37:26;3.75;;;1.00;;
78027;SDS011;74605;45.864;11.474;2024-03-07T04:39:54;4.80;;;1.52;;
78027;SDS011;74605;45.864;11.474;2024-03-07T04:42:20;9.43;;;2.07;;
78027;SDS011;74605;45.864;11.474;2024-03-07T04:44:46;4.78;;;1.75;;
78027;SDS011;74605;45.864;11.474;2024-03-07T04:47:12;5.80;;;2.00;;
78027;SDS011;74605;45.864;11.474;2024-03-07T04:49:38;6.90;;;2.33;;
78027;SDS011;74605;45.864;11.474;2024-03-07T04:52:05;7.63;;;2.08;;
78027;SDS011;74605;45.864;11.474;2024-03-07T04:54:32;8.73;;;3.22;;
78027;SDS011;74605;45.864;11.474;2024-03-07T04:56:59;15.95;;;5.80;;
78027;SDS011;74605;45.864;11.474;2024-03-07T04:59:25;21.30;;;8.17;;
78027;SDS011;74605;45.864;11.474;2024-03-07T05:01:51;18.75;;;6.03;;
78027;SDS011;74605;45.864;11.474;2024-03-07T05:04:17;14.35;;;5.03;;
78027;SDS011;74605;45.864;11.474;2024-03-07T05:06:44;12.30;;;4.43;;
78027;SDS011;74605;45.864;11.474;2024-03-07T05:09:13;12.73;;;5.28;;
78027;SDS011;74605;45.864;11.474;2024-03-07T05:11:49;15.50;;;4.70;;
78027;SDS011;74605;45.864;11.474;2024-03-07T05:14:18;10.98;;;3.45;;
78027;SDS011;74605;45.864;11.474;2024-03-07T05:16:44;13.40;;;4.22;;
78027;SDS011;74605;45.864;11.474;2024-03-07T05:19:10;13.67;;;4.90;;
78027;SDS011;74605;45.864;11.474;2024-03-07T05:21:36;14.18;;;5.00;;
78027;SDS011;74605;45.864;11.474;2024-03-07T05:24:08;17.17;;;5.60;;
78027;SDS011;74605;45.864;11.474;2024-03-07T05:26:37;14.48;;;4.70;;
78027;SDS011;74605;45.864;11.474;2024-03-07T05:29:08;12.07;;;3.27;;
78027;SDS011;74605;45.864;11.474;2024-03-07T05:31:35;8.07;;;2.60;;
78027;SDS011;74605;45.864;11.474;2024-03-07T05:34:09;7.72;;;2.25;;
78027;SDS011;74605;45.864;11.474;2024-03-07T05:36:35;5.50;;;1.40;;
78027;SDS011;74605;45.864;11.474;2024-03-07T05:39:09;5.80;;;1.77;;
78027;SDS011;74605;45.864;11.474;2024-03-07T05:41:37;4.85;;;1.30;;
78027;SDS011;74605;45.864;11.474;2024-03-07T05:44:03;4.25;;;1.10;;
78027;SDS011;74605;45.864;11.474;2024-03-07T05:46:36;4.40;;;1.02;;
78027;SDS011;74605;45.864;11.474;2024-03-07T05:49:06;3.92;;;1.23;;
78027;SDS011;74605;45.864;11.474;2024-03-07T05:51:33;3.87;;;0.93;;
78027;SDS011;74605;45.864;11.474;2024-03-07T05:54:00;4.75;;;0.93;;
78027;SDS011;74605;45.864;11.474;2024-03-07T05:56:25;4.90;;;1.13;;
78027;SDS011;74605;45.864;11.474;2024-03-07T05:58:52;4.75;;;1.15;;
78027;SDS011;74605;45.864;11.474;2024-03-07T06:01:19;4.53;;;1.60;;
78027;SDS011;74605;45.864;11.474;2024-03-07T06:03:45;4.53;;;2.10;;
78027;SDS011;74605;45.864;11.474;2024-03-07T06:06:13;5.10;;;1.83;;
78027;SDS011;74605;45.864;11.474;2024-03-07T06:08:40;4.68;;;1.23;;
78027;SDS011;74605;45.864;11.474;2024-03-07T06:11:07;4.32;;;1.30;;
78027;SDS011;74605;45.864;11.474;2024-03-07T06:13:34;4.03;;;1.10;;
78027;SDS011;74605;45.864;11.474;2024-03-07T06:16:00;4.10;;;0.80;;
78027;SDS011;74605;45.864;11.474;2024-03-07T06:18:30;3.10;;;0.60;;
78027;SDS011;74605;45.864;11.474;2024-03-07T06:20:56;4.07;;;1.65;;
78027;SDS011;74605;45.864;11.474;2024-03-07T06:23:22;4.47;;;1.20;;
78027;SDS011;74605;45.864;11.474;2024-03-07T06:25:49;5.28;;;1.10;;
78027;SDS011;74605;45.864;11.474;2024-03-07T06:28:19;3.90;;;0.90;;
78027;SDS011;74605;45.864;11.474;2024-03-07T06:30:46;3.38;;;0.90;;
78027;SDS011;74605;45.864;11.474;2024-03-07T06:33:13;3.90;;;0.80;;
78027;SDS011;74605;45.864;11.474;2024-03-07T06:35:39;3.80;;;0.70;;
78027;SDS011;74605;45.864;11.474;2024-03-07T06:38:06;3.30;;;0.80;;
78027;SDS011;74605;45.864;11.474;2024-03-07T06:40:34;3.42;;;0.80;;
78027;SDS011;74605;45.864;11.474;2024-03-07T06:43:01;4.15;;;1.23;;
78027;SDS011;74605;45.864;11.474;2024-03-07T06:45:34;5.05;;;1.33;;
78027;SDS011;74605;45.864;11.474;2024-03-07T06:48:05;4.50;;;1.27;;
78027;SDS011;74605;45.864;11.474;2024-03-07T06:50:35;5.32;;;1.80;;
78027;SDS011;74605;45.864;11.474;2024-03-07T06:53:02;5.78;;;2.00;;
78027;SDS011;74605;45.864;11.474;2024-03-07T06:55:28;5.38;;;2.00;;
78027;SDS011;74605;45.864;11.474;2024-03-07T06:57:55;6.90;;;3.17;;
78027;SDS011;74605;45.864;11.474;2024-03-07T07:00:21;11.37;;;4.87;;
78027;SDS011;74605;45.864;11.474;2024-03-07T07:02:47;10.20;;;4.80;;
78027;SDS011;74605;45.864;11.474;2024-03-07T07:05:14;8.18;;;4.07;;
78027;SDS011;74605;45.864;11.474;2024-03-07T07:07:43;8.50;;;4.35;;
78027;SDS011;74605;45.864;11.474;2024-03-07T07:10:10;9.03;;;3.93;;
78027;SDS011;74605;45.864;11.474;2024-03-07T07:12:47;8.80;;;4.07;;
78027;SDS011;74605;45.864;11.474;2024-03-07T07:17:49;10.07;;;3.50;;
78027;SDS011;74605;45.864;11.474;2024-03-07T07:20:16;10.32;;;6.57;;
78027;SDS011;74605;45.864;11.474;2024-03-07T07:22:43;10.60;;;5.30;;
78027;SDS011;74605;45.864;11.474;2024-03-07T07:25:11;8.95;;;4.30;;
78027;SDS011;74605;45.864;11.474;2024-03-07T07:27:47;13.57;;;5.95;;
78027;SDS011;74605;45.864;11.474;2024-03-07T07:30:15;9.90;;;5.18;;
78027;SDS011;74605;45.864;11.474;2024-03-07T07:32:43;9.82;;;4.90;;
78027;SDS011;74605;45.864;11.474;2024-03-07T07:35:10;12.13;;;10.80;;
78027;SDS011;74605;45.864;11.474;2024-03-07T07:37:37;8.32;;;4.50;;
78027;SDS011;74605;45.864;11.474;2024-03-07T07:40:04;7.82;;;4.18;;
78027;SDS011;74605;45.864;11.474;2024-03-07T07:42:34;8.73;;;3.90;;
78027;SDS011;74605;45.864;11.474;2024-03-07T07:45:04;6.70;;;3.35;;
78027;SDS011;74605;45.864;11.474;2024-03-07T07:47:40;8.37;;;2.60;;
78027;SDS011;74605;45.864;11.474;2024-03-07T07:50:08;8.70;;;2.85;;
78027;SDS011;74605;45.864;11.474;2024-03-07T07:52:43;5.60;;;2.60;;
78027;SDS011;74605;45.864;11.474;2024-03-07T07:55:11;6.25;;;2.47;;
78027;SDS011;74605;45.864;11.474;2024-03-07T07:57:40;5.38;;;2.08;;
78027;SDS011;74605;45.864;11.474;2024-03-07T08:00:08;6.60;;;2.33;;
78027;SDS011;74605;45.864;11.474;2024-03-07T08:02:58;6.53;;;2.15;;
78027;SDS011;74605;45.864;11.474;2024-03-07T08:05:24;5.60;;;2.10;;
78027;SDS011;74605;45.864;11.474;2024-03-07T08:07:53;5.53;;;2.00;;
78027;SDS011;74605;45.864;11.474;2024-03-07T08:10:23;5.13;;;1.92;;
78027;SDS011;74605;45.864;11.474;2024-03-07T08:12:50;12.43;;;6.30;;
78027;SDS011;74605;45.864;11.474;2024-03-07T08:15:16;18.65;;;8.88;;
78027;SDS011;74605;45.864;11.474;2024-03-07T08:17:42;11.68;;;6.07;;
78027;SDS011;74605;45.864;11.474;2024-03-07T08:20:19;6.00;;;2.42;;
78027;SDS011;74605;45.864;11.474;2024-03-07T08:22:48;5.20;;;1.60;;
78027;SDS011;74605;45.864;11.474;2024-03-07T08:25:22;5.10;;;1.60;;
78027;SDS011;74605;45.864;11.474;2024-03-07T08:27:50;3.20;;;0.90;;
78027;SDS011;74605;45.864;11.474;2024-03-07T08:30:17;3.65;;;0.80;;
78027;SDS011;74605;45.864;11.474;2024-03-07T08:32:44;3.58;;;1.17;;
78027;SDS011;74605;45.864;11.474;2024-03-07T08:35:14;5.10;;;2.78;;
78027;SDS011;74605;45.864;11.474;2024-03-07T08:37:42;5.20;;;2.10;;
78027;SDS011;74605;45.864;11.474;2024-03-07T08:40:12;9.32;;;4.22;;
78027;SDS011;74605;45.864;11.474;2024-03-07T08:42:45;6.60;;;2.55;;
78027;SDS011;74605;45.864;11.474;2024-03-07T08:45:18;6.53;;;1.90;;
78027;SDS011;74605;45.864;11.474;2024-03-07T08:47:45;5.80;;;1.77;;
78027;SDS011;74605;45.864;11.474;2024-03-07T08:50:12;5.83;;;1.40;;
78027;SDS011;74605;45.864;11.474;2024-03-07T08:52:38;5.75;;;1.95;;
78027;SDS011;74605;45.864;11.474;2024-03-07T08:55:06;7.85;;;2.72;;
78027;SDS011;74605;45.864;11.474;2024-03-07T08:57:37;4.53;;;1.38;;
78027;SDS011;74605;45.864;11.474;2024-03-07T09:00:04;4.50;;;1.05;;
78027;SDS011;74605;45.864;11.474;2024-03-07T09:02:34;9.43;;;1.37;;
78027;SDS011;74605;45.864;11.474;2024-03-07T09:05:01;15.07;;;4.80;;
78027;SDS011;74605;45.864;11.474;2024-03-07T09:07:27;9.45;;;3.70;;
78027;SDS011;74605;45.864;11.474;2024-03-07T09:09:54;11.45;;;3.15;;
78027;SDS011;74605;45.864;11.474;2024-03-07T09:12:21;8.90;;;2.50;;
78027;SDS011;74605;45.864;11.474;2024-03-07T09:14:46;11.33;;;3.20;;
78027;SDS011;74605;45.864;11.474;2024-03-07T09:17:12;14.52;;;5.43;;
78027;SDS011;74605;45.864;11.474;2024-03-07T09:19:38;11.65;;;3.47;;
78027;SDS011;74605;45.864;11.474;2024-03-07T09:22:04;9.00;;;2.50;;
78027;SDS011;74605;45.864;11.474;2024-03-07T09:24:33;7.45;;;1.83;;
78027;SDS011;74605;45.864;11.474;2024-03-07T09:27:00;12.73;;;1.90;;
78027;SDS011;74605;45.864;11.474;2024-03-07T09:29:26;6.80;;;2.15;;
78027;SDS011;74605;45.864;11.474;2024-03-07T09:31:53;23.15;;;9.93;;
78027;SDS011;74605;45.864;11.474;2024-03-07T09:34:20;8.13;;;2.47;;
78027;SDS011;74605;45.864;11.474;2024-03-07T09:36:47;6.90;;;2.60;;
78027;SDS011;74605;45.864;11.474;2024-03-07T09:39:14;15.48;;;3.90;;
78027;SDS011;74605;45.864;11.474;2024-03-07T09:41:41;7.82;;;2.70;;
78027;SDS011;74605;45.864;11.474;2024-03-07T09:44:09;9.40;;;2.90;;
78027;SDS011;74605;45.864;11.474;2024-03-07T09:46:47;7.93;;;3.10;;
78027;SDS011;74605;45.864;11.474;2024-03-07T09:49:14;10.57;;;3.05;;
78027;SDS011;74605;45.864;11.474;2024-03-07T09:51:41;5.30;;;1.83;;
78027;SDS011;74605;45.864;11.474;2024-03-07T09:54:09;8.82;;;3.28;;
78027;SDS011;74605;45.864;11.474;2024-03-07T09:56:35;8.17;;;3.50;;
78027;SDS011;74605;45.864;11.474;2024-03-07T09:59:03;79.07;;;30.90;;
78027;SDS011;74605;45.864;11.474;2024-03-07T10:01:33;100.78;;;37.72;;
78027;SDS011;74605;45.864;11.474;2024-03-07T10:04:00;26.15;;;10.07;;
78027;SDS011;74605;45.864;11.474;2024-03-07T10:06:35;11.85;;;3.40;;
78027;SDS011;74605;45.864;11.474;2024-03-07T10:09:01;6.27;;;1.87;;
78027;SDS011;74605;45.864;11.474;2024-03-07T10:11:29;19.42;;;2.60;;
78027;SDS011;74605;45.864;11.474;2024-03-07T10:13:55;8.15;;;1.60;;
78027;SDS011;74605;45.864;11.474;2024-03-07T10:16:21;9.10;;;1.90;;
78027;SDS011;74605;45.864;11.474;2024-03-07T10:18:48;18.43;;;3.37;;
78027;SDS011;74605;45.864;11.474;2024-03-07T10:21:18;14.88;;;3.15;;
78027;SDS011;74605;45.864;11.474;2024-03-07T10:23:49;26.77;;;5.53;;
78027;SDS011;74605;45.864;11.474;2024-03-07T10:26:18;20.50;;;5.03;;
78027;SDS011;74605;45.864;11.474;2024-03-07T10:28:45;28.67;;;5.25;;
78027;SDS011;74605;45.864;11.474;2024-03-07T10:31:11;12.23;;;4.27;;
78027;SDS011;74605;45.864;11.474;2024-03-07T10:33:52;17.00;;;5.88;;
78027;SDS011;74605;45.864;11.474;2024-03-07T10:36:22;11.85;;;4.68;;
78027;SDS011;74605;45.864;11.474;2024-03-07T10:38:49;18.08;;;7.03;;
78027;SDS011;74605;45.864;11.474;2024-03-07T10:41:14;13.55;;;3.83;;
78027;SDS011;74605;45.864;11.474;2024-03-07T10:43:42;22.63;;;5.40;;
78027;SDS011;74605;45.864;11.474;2024-03-07T10:46:10;16.02;;;4.90;;
78027;SDS011;74605;45.864;11.474;2024-03-07T10:48:38;20.08;;;5.18;;
78027;SDS011;74605;45.864;11.474;2024-03-07T10:56:26;16.47;;;5.90;;
78027;SDS011;74605;45.864;11.474;2024-03-07T10:59:08;14.57;;;6.80;;
78027;SDS011;74605;45.864;11.474;2024-03-07T11:04:22;21.30;;;5.82;;
78027;SDS011;74605;45.864;11.474;2024-03-07T11:06:49;22.98;;;10.15;;
78027;SDS011;74605;45.864;11.474;2024-03-07T11:09:15;17.07;;;7.73;;
78027;SDS011;74605;45.864;11.474;2024-03-07T11:11:48;14.98;;;5.68;;
78027;SDS011;74605;45.864;11.474;2024-03-07T11:14:14;12.75;;;5.50;;
78027;SDS011;74605;45.864;11.474;2024-03-07T11:16:41;14.10;;;5.75;;
78027;SDS011;74605;45.864;11.474;2024-03-07T11:19:27;13.07;;;6.13;;
78027;SDS011;74605;45.864;11.474;2024-03-07T11:21:55;12.88;;;5.13;;
78027;SDS011;74605;45.864;11.474;2024-03-07T11:24:29;12.73;;;5.53;;
78027;SDS011;74605;45.864;11.474;2024-03-07T11:26:57;15.35;;;6.22;;
78027;SDS011;74605;45.864;11.474;2024-03-07T11:30:06;13.52;;;5.93;;
78027;SDS011;74605;45.864;11.474;2024-03-07T11:32:19;13.97;;;6.20;;
78027;SDS011;74605;45.864;11.474;2024-03-07T11:34:48;20.98;;;9.38;;
78027;SDS011;74605;45.864;11.474;2024-03-07T11:42:50;25.23;;;10.05;;
78027;SDS011;74605;45.864;11.474;2024-03-07T11:45:17;24.30;;;9.53;;
78027;SDS011;74605;45.864;11.474;2024-03-07T11:47:54;22.70;;;8.98;;
78027;SDS011;74605;45.864;11.474;2024-03-07T11:50:35;18.02;;;6.55;;
78027;SDS011;74605;45.864;11.474;2024-03-07T11:53:02;27.85;;;9.98;;
78027;SDS011;74605;45.864;11.474;2024-03-07T11:55:36;19.42;;;7.85;;
78027;SDS011;74605;45.864;11.474;2024-03-07T11:58:13;35.40;;;11.30;;
78027;SDS011;74605;45.864;11.474;2024-03-07T12:00:43;22.02;;;9.27;;
78027;SDS011;74605;45.864;11.474;2024-03-07T12:03:10;18.10;;;7.07;;
78027;SDS011;74605;45.864;11.474;2024-03-07T12:05:42;27.70;;;10.75;;
78027;SDS011;74605;45.864;11.474;2024-03-07T12:08:09;13.80;;;6.63;;
78027;SDS011;74605;45.864;11.474;2024-03-07T12:10:40;28.00;;;12.10;;
78027;SDS011;74605;45.864;11.474;2024-03-07T12:13:10;29.63;;;10.30;;
78027;SDS011;74605;45.864;11.474;2024-03-07T12:15:37;28.13;;;10.23;;
78027;SDS011;74605;45.864;11.474;2024-03-07T12:18:04;32.03;;;11.88;;
78027;SDS011;74605;45.864;11.474;2024-03-07T12:20:37;31.20;;;16.50;;
78027;SDS011;74605;45.864;11.474;2024-03-07T12:23:07;22.00;;;9.87;;
78027;SDS011;74605;45.864;11.474;2024-03-07T12:25:34;17.92;;;9.80;;
78027;SDS011;74605;45.864;11.474;2024-03-07T12:28:13;19.05;;;9.60;;
78027;SDS011;74605;45.864;11.474;2024-03-07T12:33:12;24.23;;;9.88;;
78027;SDS011;74605;45.864;11.474;2024-03-07T12:35:51;23.23;;;10.63;;
78027;SDS011;74605;45.864;11.474;2024-03-07T12:38:19;18.63;;;9.73;;
78027;SDS011;74605;45.864;11.474;2024-03-07T12:41:01;18.90;;;8.90;;
78027;SDS011;74605;45.864;11.474;2024-03-07T12:43:39;16.83;;;7.55;;
78027;SDS011;74605;45.864;11.474;2024-03-07T12:46:07;15.40;;;6.72;;
78027;SDS011;74605;45.864;11.474;2024-03-07T12:48:37;15.33;;;7.07;;
78027;SDS011;74605;45.864;11.474;2024-03-07T12:51:04;14.98;;;7.47;;
78027;SDS011;74605;45.864;11.474;2024-03-07T12:53:30;15.32;;;7.85;;
78027;SDS011;74605;45.864;11.474;2024-03-07T12:55:56;29.35;;;8.63;;
78027;SDS011;74605;45.864;11.474;2024-03-07T12:58:22;11.48;;;4.75;;
78027;SDS011;74605;45.864;11.474;2024-03-07T13:00:54;11.82;;;5.60;;
78027;SDS011;74605;45.864;11.474;2024-03-07T13:03:21;12.55;;;5.68;;
78027;SDS011;74605;45.864;11.474;2024-03-07T13:05:47;15.40;;;5.65;;
78027;SDS011;74605;45.864;11.474;2024-03-07T13:08:13;11.25;;;5.55;;
78027;SDS011;74605;45.864;11.474;2024-03-07T13:10:43;14.07;;;7.00;;
78027;SDS011;74605;45.864;11.474;2024-03-07T13:13:10;21.40;;;12.52;;
78027;SDS011;74605;45.864;11.474;2024-03-07T13:15:36;15.23;;;7.43;;
78027;SDS011;74605;45.864;11.474;2024-03-07T13:18:04;12.23;;;5.22;;
78027;SDS011;74605;45.864;11.474;2024-03-07T13:20:30;12.48;;;5.60;;
78027;SDS011;74605;45.864;11.474;2024-03-07T13:22:56;30.33;;;7.40;;
78027;SDS011;74605;45.864;11.474;2024-03-07T13:25:24;14.20;;;5.63;;
78027;SDS011;74605;45.864;11.474;2024-03-07T13:27:52;13.93;;;6.20;;
78027;SDS011;74605;45.864;11.474;2024-03-07T13:30:25;23.08;;;5.70;;
78027;SDS011;74605;45.864;11.474;2024-03-07T13:32:53;11.60;;;5.03;;
78027;SDS011;74605;45.864;11.474;2024-03-07T13:35:20;10.60;;;4.30;;
78027;SDS011;74605;45.864;11.474;2024-03-07T13:37:47;14.00;;;4.88;;
78027;SDS011;74605;45.864;11.474;2024-03-07T13:40:14;11.18;;;4.57;;
78027;SDS011;74605;45.864;11.474;2024-03-07T13:42:55;9.40;;;3.83;;
78027;SDS011;74605;45.864;11.474;2024-03-07T13:45:26;12.52;;;4.20;;
78027;SDS011;74605;45.864;11.474;2024-03-07T13:47:53;9.60;;;3.90;;
78027;SDS011;74605;45.864;11.474;2024-03-07T13:50:20;11.00;;;4.43;;
78027;SDS011;74605;45.864;11.474;2024-03-07T13:52:50;14.50;;;4.60;;
78027;SDS011;74605;45.864;11.474;2024-03-07T13:55:32;7.65;;;3.67;;
78027;SDS011;74605;45.864;11.474;2024-03-07T13:58:06;9.82;;;3.78;;
78027;SDS011;74605;45.864;11.474;2024-03-07T14:00:59;15.33;;;3.73;;
78027;SDS011;74605;45.864;11.474;2024-03-07T14:09:30;9.85;;;4.18;;
78027;SDS011;74605;45.864;11.474;2024-03-07T14:30:50;10.67;;;4.43;;
78027;SDS011;74605;45.864;11.474;2024-03-07T14:32:55;20.65;;;6.38;;
78027;SDS011;74605;45.864;11.474;2024-03-07T14:35:32;19.15;;;5.85;;
78027;SDS011;74605;45.864;11.474;2024-03-07T14:40:47;14.85;;;4.35;;
78027;SDS011;74605;45.864;11.474;2024-03-07T14:43:15;10.43;;;4.67;;
78027;SDS011;74605;45.864;11.474;2024-03-07T14:45:42;18.38;;;6.20;;
78027;SDS011;74605;45.864;11.474;2024-03-07T14:48:09;11.35;;;5.13;;
78027;SDS011;74605;45.864;11.474;2024-03-07T14:50:40;12.90;;;5.57;;
78027;SDS011;74605;45.864;11.474;2024-03-07T14:53:08;15.18;;;6.85;;
78027;SDS011;74605;45.864;11.474;2024-03-07T14:55:34;13.33;;;5.50;;
78027;SDS011;74605;45.864;11.474;2024-03-07T14:58:01;13.55;;;7.88;;
78027;SDS011;74605;45.864;11.474;2024-03-07T15:00:27;18.23;;;6.90;;
78027;SDS011;74605;45.864;11.474;2024-03-07T15:02:58;14.20;;;7.50;;
78027;SDS011;74605;45.864;11.474;2024-03-07T15:05:25;18.08;;;7.20;;
78027;SDS011;74605;45.864;11.474;2024-03-07T15:07:52;16.50;;;7.00;;
78027;SDS011;74605;45.864;11.474;2024-03-07T15:10:27;18.50;;;8.50;;
78027;SDS011;74605;45.864;11.474;2024-03-07T15:12:57;16.13;;;8.32;;
78027;SDS011;74605;45.864;11.474;2024-03-07T15:15:23;14.18;;;6.28;;
78027;SDS011;74605;45.864;11.474;2024-03-07T15:17:56;25.80;;;9.13;;
78027;SDS011;74605;45.864;11.474;2024-03-07T15:20:23;19.15;;;8.48;;